sensor_id;sensor_type;location;lat;lon;timestamp;P1;durP1;ratioP1;P2;durP2;ratioP2
41713;SDS011;27401;47.384;13.666;2023-07-28T00:01:05;2.13;;;1.42;;
41713;SDS011;27401;47.384;13.666;2023-07-28T00:03:30;2.38;;;1.58;;
41713;SDS011;27401;47.384;13.666;2023-07-28T00:05:56;2.22;;;1.40;;
41713;SDS011;27401;47.384;13.666;2023-07-28T00:08:21;1.50;;;1.40;;
41713;SDS011;27401;47.384;13.666;2023-07-28T00:10:47;2.40;;;1.33;;
41713;SDS011;27401;47.384;13.666;2023-07-28T00:13:13;2.05;;;1.40;;
41713;SDS011;27401;47.384;13.666;2023-07-28T00:15:38;2.90;;;1.55;;
41713;SDS011;27401;47.384;13.666;2023-07-28T00:18:04;1.52;;;1.40;;
41713;SDS011;27401;47.384;13.666;2023-07-28T00:20:29;4.28;;;1.60;;
41713;SDS011;27401;47.384;13.666;2023-07-28T00:22:55;2.60;;;1.40;;
41713;SDS011;27401;47.384;13.666;2023-07-28T00:25:20;2.03;;;1.70;;
41713;SDS011;27401;47.384;13.666;2023-07-28T00:27:47;3.03;;;1.50;;
41713;SDS011;27401;47.384;13.666;2023-07-28T00:30:12;2.13;;;1.88;;
41713;SDS011;27401;47.384;13.666;2023-07-28T00:32:38;1.50;;;1.30;;
41713;SDS011;27401;47.384;13.666;2023-07-28T00:35:04;4.68;;;1.65;;
41713;SDS011;27401;47.384;13.666;2023-07-28T00:37:31;1.33;;;1.23;;
41713;SDS011;27401;47.384;13.666;2023-07-28T00:39:57;1.50;;;1.40;;
41713;SDS011;27401;47.384;13.666;2023-07-28T00:42:22;1.63;;;1.48;;
41713;SDS011;27401;47.384;13.666;2023-07-28T00:44:48;1.80;;;1.20;;
41713;SDS011;27401;47.384;13.666;2023-07-28T00:47:13;1.60;;;1.50;;
41713;SDS011;27401;47.384;13.666;2023-07-28T00:49:39;1.48;;;1.35;;
41713;SDS011;27401;47.384;13.666;2023-07-28T00:52:06;2.35;;;1.35;;
41713;SDS011;27401;47.384;13.666;2023-07-28T00:54:32;1.80;;;1.42;;
41713;SDS011;27401;47.384;13.666;2023-07-28T00:56:59;1.25;;;1.15;;
41713;SDS011;27401;47.384;13.666;2023-07-28T00:59:25;1.45;;;1.35;;
41713;SDS011;27401;47.384;13.666;2023-07-28T01:01:51;1.50;;;1.40;;
41713;SDS011;27401;47.384;13.666;2023-07-28T01:04:17;1.85;;;1.60;;
41713;SDS011;27401;47.384;13.666;2023-07-28T01:09:29;1.48;;;1.38;;
41713;SDS011;27401;47.384;13.666;2023-07-28T01:12:01;1.77;;;1.25;;
41713;SDS011;27401;47.384;13.666;2023-07-28T01:16:58;2.20;;;1.30;;
41713;SDS011;27401;47.384;13.666;2023-07-28T01:19:23;1.60;;;1.50;;
41713;SDS011;27401;47.384;13.666;2023-07-28T01:27:16;1.70;;;1.60;;
41713;SDS011;27401;47.384;13.666;2023-07-28T01:29:42;2.63;;;1.40;;
41713;SDS011;27401;47.384;13.666;2023-07-28T01:32:10;2.22;;;1.50;;
41713;SDS011;27401;47.384;13.666;2023-07-28T01:34:36;2.22;;;1.33;;
41713;SDS011;27401;47.384;13.666;2023-07-28T01:37:01;1.48;;;1.38;;
41713;SDS011;27401;47.384;13.666;2023-07-28T01:39:27;2.15;;;1.30;;
41713;SDS011;27401;47.384;13.666;2023-07-28T01:41:52;5.72;;;1.30;;
41713;SDS011;27401;47.384;13.666;2023-07-28T01:44:18;2.40;;;1.48;;
41713;SDS011;27401;47.384;13.666;2023-07-28T01:46:43;3.05;;;1.15;;
41713;SDS011;27401;47.384;13.666;2023-07-28T01:49:09;1.40;;;1.30;;
41713;SDS011;27401;47.384;13.666;2023-07-28T01:51:34;1.63;;;1.45;;
41713;SDS011;27401;47.384;13.666;2023-07-28T01:54:00;1.30;;;1.17;;
41713;SDS011;27401;47.384;13.666;2023-07-28T01:56:25;1.98;;;1.40;;
41713;SDS011;27401;47.384;13.666;2023-07-28T01:58:51;1.30;;;1.20;;
41713;SDS011;27401;47.384;13.666;2023-07-28T02:01:17;2.45;;;1.40;;
41713;SDS011;27401;47.384;13.666;2023-07-28T02:03:42;1.65;;;1.30;;
41713;SDS011;27401;47.384;13.666;2023-07-28T02:06:08;3.13;;;1.38;;
41713;SDS011;27401;47.384;13.666;2023-07-28T02:08:33;1.73;;;1.63;;
41713;SDS011;27401;47.384;13.666;2023-07-28T02:10:59;1.30;;;1.20;;
41713;SDS011;27401;47.384;13.666;2023-07-28T02:13:24;1.70;;;1.33;;
41713;SDS011;27401;47.384;13.666;2023-07-28T02:15:50;1.42;;;1.20;;
41713;SDS011;27401;47.384;13.666;2023-07-28T02:18:15;1.35;;;1.25;;
41713;SDS011;27401;47.384;13.666;2023-07-28T02:20:41;1.38;;;1.27;;
41713;SDS011;27401;47.384;13.666;2023-07-28T02:23:07;1.45;;;1.20;;
41713;SDS011;27401;47.384;13.666;2023-07-28T02:25:32;1.50;;;1.40;;
41713;SDS011;27401;47.384;13.666;2023-07-28T02:27:59;1.60;;;1.50;;
41713;SDS011;27401;47.384;13.666;2023-07-28T02:30:24;1.75;;;1.50;;
41713;SDS011;27401;47.384;13.666;2023-07-28T02:32:50;5.75;;;1.50;;
41713;SDS011;27401;47.384;13.666;2023-07-28T02:35:16;1.50;;;1.40;;
41713;SDS011;27401;47.384;13.666;2023-07-28T02:37:41;1.50;;;1.30;;
41713;SDS011;27401;47.384;13.666;2023-07-28T02:40:08;2.40;;;1.55;;
41713;SDS011;27401;47.384;13.666;2023-07-28T02:42:34;4.47;;;1.40;;
41713;SDS011;27401;47.384;13.666;2023-07-28T02:45:01;2.25;;;1.50;;
41713;SDS011;27401;47.384;13.666;2023-07-28T02:47:27;1.30;;;1.20;;
41713;SDS011;27401;47.384;13.666;2023-07-28T02:49:52;7.57;;;2.85;;
41713;SDS011;27401;47.384;13.666;2023-07-28T02:52:18;1.75;;;1.65;;
41713;SDS011;27401;47.384;13.666;2023-07-28T02:54:43;3.75;;;1.42;;
41713;SDS011;27401;47.384;13.666;2023-07-28T02:57:09;2.28;;;1.42;;
41713;SDS011;27401;47.384;13.666;2023-07-28T02:59:36;1.60;;;1.48;;
41713;SDS011;27401;47.384;13.666;2023-07-28T03:02:01;1.23;;;1.13;;
41713;SDS011;27401;47.384;13.666;2023-07-28T03:04:27;1.42;;;1.13;;
41713;SDS011;27401;47.384;13.666;2023-07-28T03:07:12;2.83;;;1.40;;
41713;SDS011;27401;47.384;13.666;2023-07-28T03:09:39;2.28;;;1.42;;
41713;SDS011;27401;47.384;13.666;2023-07-28T03:12:05;1.40;;;1.30;;
41713;SDS011;27401;47.384;13.666;2023-07-28T03:14:31;1.83;;;1.40;;
41713;SDS011;27401;47.384;13.666;2023-07-28T03:16:57;1.23;;;1.13;;
41713;SDS011;27401;47.384;13.666;2023-07-28T03:19:23;2.38;;;1.70;;
41713;SDS011;27401;47.384;13.666;2023-07-28T03:21:49;1.60;;;1.40;;
41713;SDS011;27401;47.384;13.666;2023-07-28T03:24:14;2.60;;;1.60;;
41713;SDS011;27401;47.384;13.666;2023-07-28T03:26:40;1.60;;;1.50;;
41713;SDS011;27401;47.384;13.666;2023-07-28T03:29:05;4.32;;;1.58;;
41713;SDS011;27401;47.384;13.666;2023-07-28T03:31:31;4.63;;;1.77;;
41713;SDS011;27401;47.384;13.666;2023-07-28T03:34:01;4.25;;;1.60;;
41713;SDS011;27401;47.384;13.666;2023-07-28T03:36:28;2.00;;;1.60;;
41713;SDS011;27401;47.384;13.666;2023-07-28T03:38:54;2.60;;;1.38;;
41713;SDS011;27401;47.384;13.666;2023-07-28T03:41:20;1.58;;;1.40;;
41713;SDS011;27401;47.384;13.666;2023-07-28T03:43:45;1.65;;;1.55;;
41713;SDS011;27401;47.384;13.666;2023-07-28T03:46:11;2.33;;;1.38;;
41713;SDS011;27401;47.384;13.666;2023-07-28T03:48:37;2.20;;;1.58;;
41713;SDS011;27401;47.384;13.666;2023-07-28T03:51:02;2.30;;;1.50;;
41713;SDS011;27401;47.384;13.666;2023-07-28T03:53:28;2.08;;;1.20;;
41713;SDS011;27401;47.384;13.666;2023-07-28T03:55:54;1.77;;;1.10;;
41713;SDS011;27401;47.384;13.666;2023-07-28T03:58:24;3.20;;;1.60;;
41713;SDS011;27401;47.384;13.666;2023-07-28T04:00:51;1.88;;;1.65;;
41713;SDS011;27401;47.384;13.666;2023-07-28T04:03:17;1.70;;;1.60;;
41713;SDS011;27401;47.384;13.666;2023-07-28T04:05:43;2.47;;;1.48;;
41713;SDS011;27401;47.384;13.666;2023-07-28T04:08:09;1.77;;;1.52;;
41713;SDS011;27401;47.384;13.666;2023-07-28T04:10:34;3.03;;;1.50;;
41713;SDS011;27401;47.384;13.666;2023-07-28T04:13:00;2.67;;;1.30;;
41713;SDS011;27401;47.384;13.666;2023-07-28T04:15:25;1.67;;;1.42;;
41713;SDS011;27401;47.384;13.666;2023-07-28T04:17:51;1.95;;;1.70;;
41713;SDS011;27401;47.384;13.666;2023-07-28T04:20:16;1.63;;;1.52;;
41713;SDS011;27401;47.384;13.666;2023-07-28T04:22:42;2.10;;;1.63;;
41713;SDS011;27401;47.384;13.666;2023-07-28T04:25:09;1.60;;;1.50;;
41713;SDS011;27401;47.384;13.666;2023-07-28T04:27:37;1.70;;;1.60;;
41713;SDS011;27401;47.384;13.666;2023-07-28T04:30:04;1.48;;;1.38;;
41713;SDS011;27401;47.384;13.666;2023-07-28T04:32:30;3.70;;;1.80;;
41713;SDS011;27401;47.384;13.666;2023-07-28T04:35:01;2.08;;;1.88;;
41713;SDS011;27401;47.384;13.666;2023-07-28T04:37:40;1.88;;;1.70;;
41713;SDS011;27401;47.384;13.666;2023-07-28T04:40:06;3.72;;;1.73;;
41713;SDS011;27401;47.384;13.666;2023-07-28T04:42:35;1.40;;;1.30;;
41713;SDS011;27401;47.384;13.666;2023-07-28T04:45:02;4.30;;;2.05;;
41713;SDS011;27401;47.384;13.666;2023-07-28T04:47:29;2.20;;;1.70;;
41713;SDS011;27401;47.384;13.666;2023-07-28T04:49:55;3.38;;;1.58;;
41713;SDS011;27401;47.384;13.666;2023-07-28T04:52:39;2.20;;;1.60;;
41713;SDS011;27401;47.384;13.666;2023-07-28T04:55:36;2.05;;;1.55;;
41713;SDS011;27401;47.384;13.666;2023-07-28T04:58:02;1.50;;;1.25;;
41713;SDS011;27401;47.384;13.666;2023-07-28T05:00:38;1.83;;;1.63;;
41713;SDS011;27401;47.384;13.666;2023-07-28T05:03:04;1.52;;;1.42;;
41713;SDS011;27401;47.384;13.666;2023-07-28T05:05:36;2.67;;;1.48;;
41713;SDS011;27401;47.384;13.666;2023-07-28T05:08:04;4.80;;;1.77;;
41713;SDS011;27401;47.384;13.666;2023-07-28T05:10:30;1.73;;;1.63;;
41713;SDS011;27401;47.384;13.666;2023-07-28T05:12:55;2.53;;;2.05;;
41713;SDS011;27401;47.384;13.666;2023-07-28T05:15:21;2.42;;;1.45;;
41713;SDS011;27401;47.384;13.666;2023-07-28T05:17:48;2.63;;;1.77;;
41713;SDS011;27401;47.384;13.666;2023-07-28T05:20:34;2.05;;;1.67;;
41713;SDS011;27401;47.384;13.666;2023-07-28T05:23:14;1.73;;;1.42;;
41713;SDS011;27401;47.384;13.666;2023-07-28T05:25:40;4.80;;;1.90;;
41713;SDS011;27401;47.384;13.666;2023-07-28T05:28:06;2.22;;;1.65;;
41713;SDS011;27401;47.384;13.666;2023-07-28T05:30:33;3.83;;;1.70;;
41713;SDS011;27401;47.384;13.666;2023-07-28T05:32:59;2.15;;;1.70;;
41713;SDS011;27401;47.384;13.666;2023-07-28T05:35:58;2.33;;;1.60;;
41713;SDS011;27401;47.384;13.666;2023-07-28T05:38:27;1.63;;;1.52;;
41713;SDS011;27401;47.384;13.666;2023-07-28T05:41:00;2.55;;;1.40;;
41713;SDS011;27401;47.384;13.666;2023-07-28T05:43:26;1.60;;;1.50;;
41713;SDS011;27401;47.384;13.666;2023-07-28T05:45:54;2.00;;;1.38;;
41713;SDS011;27401;47.384;13.666;2023-07-28T05:48:19;3.25;;;1.60;;
41713;SDS011;27401;47.384;13.666;2023-07-28T05:50:45;2.50;;;1.40;;
41713;SDS011;27401;47.384;13.666;2023-07-28T05:53:11;1.48;;;1.38;;
41713;SDS011;27401;47.384;13.666;2023-07-28T05:55:36;1.98;;;1.77;;
41713;SDS011;27401;47.384;13.666;2023-07-28T05:58:02;1.38;;;1.27;;
41713;SDS011;27401;47.384;13.666;2023-07-28T06:00:27;2.22;;;1.38;;
41713;SDS011;27401;47.384;13.666;2023-07-28T06:02:54;1.60;;;1.50;;
41713;SDS011;27401;47.384;13.666;2023-07-28T06:05:41;2.83;;;1.42;;
41713;SDS011;27401;47.384;13.666;2023-07-28T06:08:07;1.90;;;1.45;;
41713;SDS011;27401;47.384;13.666;2023-07-28T06:10:33;1.58;;;1.48;;
41713;SDS011;27401;47.384;13.666;2023-07-28T06:12:59;1.70;;;1.50;;
41713;SDS011;27401;47.384;13.666;2023-07-28T06:15:27;2.60;;;1.90;;
41713;SDS011;27401;47.384;13.666;2023-07-28T06:17:53;2.97;;;1.98;;
41713;SDS011;27401;47.384;13.666;2023-07-28T06:20:18;3.13;;;1.88;;
41713;SDS011;27401;47.384;13.666;2023-07-28T06:22:44;1.80;;;1.42;;
41713;SDS011;27401;47.384;13.666;2023-07-28T06:25:09;2.17;;;1.50;;
41713;SDS011;27401;47.384;13.666;2023-07-28T06:27:35;2.50;;;1.50;;
41713;SDS011;27401;47.384;13.666;2023-07-28T06:30:01;2.03;;;1.60;;
41713;SDS011;27401;47.384;13.666;2023-07-28T06:32:27;2.10;;;1.70;;
41713;SDS011;27401;47.384;13.666;2023-07-28T06:34:53;2.15;;;1.83;;
41713;SDS011;27401;47.384;13.666;2023-07-28T06:37:20;2.42;;;1.30;;
41713;SDS011;27401;47.384;13.666;2023-07-28T06:39:46;1.60;;;1.50;;
41713;SDS011;27401;47.384;13.666;2023-07-28T06:42:12;1.50;;;1.40;;
41713;SDS011;27401;47.384;13.666;2023-07-28T06:44:38;1.90;;;1.65;;
41713;SDS011;27401;47.384;13.666;2023-07-28T06:47:04;2.65;;;2.08;;
41713;SDS011;27401;47.384;13.666;2023-07-28T06:49:31;4.35;;;1.80;;
41713;SDS011;27401;47.384;13.666;2023-07-28T06:51:58;2.83;;;1.70;;
41713;SDS011;27401;47.384;13.666;2023-07-28T06:54:23;2.28;;;1.55;;
41713;SDS011;27401;47.384;13.666;2023-07-28T06:56:49;1.75;;;1.60;;
41713;SDS011;27401;47.384;13.666;2023-07-28T06:59:15;2.35;;;2.15;;
41713;SDS011;27401;47.384;13.666;2023-07-28T07:01:41;1.73;;;1.50;;
41713;SDS011;27401;47.384;13.666;2023-07-28T07:04:06;2.00;;;1.73;;
41713;SDS011;27401;47.384;13.666;2023-07-28T07:06:36;2.42;;;1.50;;
41713;SDS011;27401;47.384;13.666;2023-07-28T07:09:01;3.03;;;1.77;;
41713;SDS011;27401;47.384;13.666;2023-07-28T07:14:16;3.35;;;2.70;;
41713;SDS011;27401;47.384;13.666;2023-07-28T07:16:41;3.50;;;2.60;;
41713;SDS011;27401;47.384;13.666;2023-07-28T07:19:07;3.42;;;3.10;;
41713;SDS011;27401;47.384;13.666;2023-07-28T07:21:34;2.53;;;2.13;;
41713;SDS011;27401;47.384;13.666;2023-07-28T07:23:59;3.40;;;1.90;;
41713;SDS011;27401;47.384;13.666;2023-07-28T07:26:25;1.55;;;1.45;;
41713;SDS011;27401;47.384;13.666;2023-07-28T07:28:50;1.70;;;1.40;;
41713;SDS011;27401;47.384;13.666;2023-07-28T07:35:09;4.13;;;1.73;;
41713;SDS011;27401;47.384;13.666;2023-07-28T07:37:35;1.90;;;1.60;;
41713;SDS011;27401;47.384;13.666;2023-07-28T07:40:01;4.40;;;1.85;;
41713;SDS011;27401;47.384;13.666;2023-07-28T07:42:28;2.80;;;1.92;;
41713;SDS011;27401;47.384;13.666;2023-07-28T07:44:53;3.28;;;2.25;;
41713;SDS011;27401;47.384;13.666;2023-07-28T07:47:19;4.50;;;1.75;;
41713;SDS011;27401;47.384;13.666;2023-07-28T07:49:44;3.08;;;1.85;;
41713;SDS011;27401;47.384;13.666;2023-07-28T07:52:10;2.47;;;1.70;;
41713;SDS011;27401;47.384;13.666;2023-07-28T07:54:36;2.03;;;1.92;;
41713;SDS011;27401;47.384;13.666;2023-07-28T07:57:02;3.15;;;2.08;;
41713;SDS011;27401;47.384;13.666;2023-07-28T07:59:28;5.60;;;1.70;;
41713;SDS011;27401;47.384;13.666;2023-07-28T08:01:56;3.45;;;2.03;;
41713;SDS011;27401;47.384;13.666;2023-07-28T08:04:21;2.67;;;1.85;;
41713;SDS011;27401;47.384;13.666;2023-07-28T08:06:47;1.80;;;1.33;;
41713;SDS011;27401;47.384;13.666;2023-07-28T08:09:13;2.33;;;1.52;;
41713;SDS011;27401;47.384;13.666;2023-07-28T08:11:39;6.75;;;6.10;;
41713;SDS011;27401;47.384;13.666;2023-07-28T08:14:05;5.43;;;4.88;;
41713;SDS011;27401;47.384;13.666;2023-07-28T08:16:30;5.15;;;3.28;;
41713;SDS011;27401;47.384;13.666;2023-07-28T08:18:56;2.35;;;2.15;;
41713;SDS011;27401;47.384;13.666;2023-07-28T08:21:21;5.68;;;1.77;;
41713;SDS011;27401;47.384;13.666;2023-07-28T08:23:48;4.22;;;1.80;;
41713;SDS011;27401;47.384;13.666;2023-07-28T08:26:13;1.80;;;1.58;;
41713;SDS011;27401;47.384;13.666;2023-07-28T08:28:39;3.28;;;1.65;;
41713;SDS011;27401;47.384;13.666;2023-07-28T08:31:04;3.35;;;2.10;;
41713;SDS011;27401;47.384;13.666;2023-07-28T08:33:30;3.95;;;2.30;;
41713;SDS011;27401;47.384;13.666;2023-07-28T08:35:55;4.72;;;2.47;;
41713;SDS011;27401;47.384;13.666;2023-07-28T08:38:21;3.35;;;2.15;;
41713;SDS011;27401;47.384;13.666;2023-07-28T08:40:46;8.70;;;3.80;;
41713;SDS011;27401;47.384;13.666;2023-07-28T08:43:12;4.97;;;2.42;;
41713;SDS011;27401;47.384;13.666;2023-07-28T08:45:38;2.28;;;2.00;;
41713;SDS011;27401;47.384;13.666;2023-07-28T08:48:03;3.47;;;2.35;;
41713;SDS011;27401;47.384;13.666;2023-07-28T08:50:30;8.98;;;2.70;;
41713;SDS011;27401;47.384;13.666;2023-07-28T08:52:58;2.30;;;2.10;;
41713;SDS011;27401;47.384;13.666;2023-07-28T08:55:24;5.03;;;4.15;;
41713;SDS011;27401;47.384;13.666;2023-07-28T08:57:50;10.45;;;9.30;;
41713;SDS011;27401;47.384;13.666;2023-07-28T09:00:16;11.23;;;9.98;;
41713;SDS011;27401;47.384;13.666;2023-07-28T09:02:43;3.50;;;2.95;;
41713;SDS011;27401;47.384;13.666;2023-07-28T09:05:18;2.10;;;1.90;;
41713;SDS011;27401;47.384;13.666;2023-07-28T09:07:45;2.70;;;2.50;;
41713;SDS011;27401;47.384;13.666;2023-07-28T09:10:11;2.20;;;1.98;;
41713;SDS011;27401;47.384;13.666;2023-07-28T09:12:44;2.28;;;1.63;;
41713;SDS011;27401;47.384;13.666;2023-07-28T09:15:10;1.63;;;1.52;;
41713;SDS011;27401;47.384;13.666;2023-07-28T09:17:41;2.10;;;1.88;;
41713;SDS011;27401;47.384;13.666;2023-07-28T09:20:07;2.05;;;1.63;;
41713;SDS011;27401;47.384;13.666;2023-07-28T09:25:11;3.05;;;1.80;;
41713;SDS011;27401;47.384;13.666;2023-07-28T09:27:40;5.78;;;1.92;;
41713;SDS011;27401;47.384;13.666;2023-07-28T09:30:06;2.13;;;1.70;;
41713;SDS011;27401;47.384;13.666;2023-07-28T09:32:32;1.92;;;1.63;;
41713;SDS011;27401;47.384;13.666;2023-07-28T09:35:08;1.73;;;1.63;;
41713;SDS011;27401;47.384;13.666;2023-07-28T09:37:43;3.28;;;1.70;;
41713;SDS011;27401;47.384;13.666;2023-07-28T09:40:10;1.92;;;1.70;;
41713;SDS011;27401;47.384;13.666;2023-07-28T09:42:40;3.45;;;1.85;;
41713;SDS011;27401;47.384;13.666;2023-07-28T09:45:07;6.57;;;3.10;;
41713;SDS011;27401;47.384;13.666;2023-07-28T09:47:36;3.90;;;2.00;;
41713;SDS011;27401;47.384;13.666;2023-07-28T09:50:03;2.45;;;2.03;;
41713;SDS011;27401;47.384;13.666;2023-07-28T09:52:31;2.70;;;2.10;;
41713;SDS011;27401;47.384;13.666;2023-07-28T09:54:59;2.25;;;2.00;;
41713;SDS011;27401;47.384;13.666;2023-07-28T09:57:25;3.13;;;2.33;;
41713;SDS011;27401;47.384;13.666;2023-07-28T09:59:52;6.30;;;2.33;;
41713;SDS011;27401;47.384;13.666;2023-07-28T10:02:19;2.47;;;2.28;;
41713;SDS011;27401;47.384;13.666;2023-07-28T10:04:45;2.15;;;2.00;;
41713;SDS011;27401;47.384;13.666;2023-07-28T10:07:11;2.13;;;1.92;;
41713;SDS011;27401;47.384;13.666;2023-07-28T10:09:38;3.35;;;1.70;;
41713;SDS011;27401;47.384;13.666;2023-07-28T10:12:04;4.35;;;2.42;;
41713;SDS011;27401;47.384;13.666;2023-07-28T10:14:36;5.75;;;2.20;;
41713;SDS011;27401;47.384;13.666;2023-07-28T10:17:05;2.38;;;1.95;;
41713;SDS011;27401;47.384;13.666;2023-07-28T10:19:34;4.45;;;1.90;;
41713;SDS011;27401;47.384;13.666;2023-07-28T10:22:01;2.22;;;2.03;;
41713;SDS011;27401;47.384;13.666;2023-07-28T10:29:57;4.15;;;2.38;;
41713;SDS011;27401;47.384;13.666;2023-07-28T10:32:27;2.47;;;2.08;;
41713;SDS011;27401;47.384;13.666;2023-07-28T10:35:00;3.85;;;2.53;;
41713;SDS011;27401;47.384;13.666;2023-07-28T10:37:26;2.20;;;1.83;;
41713;SDS011;27401;47.384;13.666;2023-07-28T10:42:52;5.15;;;2.10;;
41713;SDS011;27401;47.384;13.666;2023-07-28T10:45:19;3.08;;;1.88;;
41713;SDS011;27401;47.384;13.666;2023-07-28T10:47:45;1.50;;;1.40;;
41713;SDS011;27401;47.384;13.666;2023-07-28T10:50:11;3.08;;;1.88;;
41713;SDS011;27401;47.384;13.666;2023-07-28T10:52:43;1.70;;;1.60;;
41713;SDS011;27401;47.384;13.666;2023-07-28T10:55:12;2.38;;;1.40;;
41713;SDS011;27401;47.384;13.666;2023-07-28T10:57:43;1.60;;;1.50;;
41713;SDS011;27401;47.384;13.666;2023-07-28T11:00:10;1.60;;;1.50;;
41713;SDS011;27401;47.384;13.666;2023-07-28T11:02:47;1.38;;;1.27;;
41713;SDS011;27401;47.384;13.666;2023-07-28T11:05:19;2.17;;;1.52;;
41713;SDS011;27401;47.384;13.666;2023-07-28T11:07:49;1.95;;;1.65;;
41713;SDS011;27401;47.384;13.666;2023-07-28T11:10:17;1.60;;;1.50;;
41713;SDS011;27401;47.384;13.666;2023-07-28T11:12:44;1.50;;;1.40;;
41713;SDS011;27401;47.384;13.666;2023-07-28T11:15:11;2.17;;;1.23;;
41713;SDS011;27401;47.384;13.666;2023-07-28T11:17:38;1.67;;;1.58;;
41713;SDS011;27401;47.384;13.666;2023-07-28T11:20:05;2.28;;;1.40;;
41713;SDS011;27401;47.384;13.666;2023-07-28T11:22:43;1.85;;;1.75;;
41713;SDS011;27401;47.384;13.666;2023-07-28T11:25:10;1.90;;;1.70;;
41713;SDS011;27401;47.384;13.666;2023-07-28T11:27:36;1.88;;;1.77;;
41713;SDS011;27401;47.384;13.666;2023-07-28T11:30:02;1.38;;;1.27;;
41713;SDS011;27401;47.384;13.666;2023-07-28T11:32:34;1.48;;;1.38;;
41713;SDS011;27401;47.384;13.666;2023-07-28T11:35:19;1.55;;;1.42;;
41713;SDS011;27401;47.384;13.666;2023-07-28T11:37:46;2.67;;;1.63;;
41713;SDS011;27401;47.384;13.666;2023-07-28T11:40:13;3.95;;;3.65;;
41713;SDS011;27401;47.384;13.666;2023-07-28T11:42:40;3.08;;;2.75;;
41713;SDS011;27401;47.384;13.666;2023-07-28T11:45:08;1.75;;;1.65;;
41713;SDS011;27401;47.384;13.666;2023-07-28T11:47:35;1.73;;;1.63;;
41713;SDS011;27401;47.384;13.666;2023-07-28T11:50:01;1.63;;;1.40;;
41713;SDS011;27401;47.384;13.666;2023-07-28T11:52:34;1.42;;;1.30;;
41713;SDS011;27401;47.384;13.666;2023-07-28T11:55:01;2.53;;;1.52;;
41713;SDS011;27401;47.384;13.666;2023-07-28T11:57:28;1.70;;;1.60;;
41713;SDS011;27401;47.384;13.666;2023-07-28T11:59:56;2.15;;;1.60;;
41713;SDS011;27401;47.384;13.666;2023-07-28T12:02:28;3.13;;;1.30;;
41713;SDS011;27401;47.384;13.666;2023-07-28T12:04:55;1.35;;;1.25;;
41713;SDS011;27401;47.384;13.666;2023-07-28T12:07:30;1.73;;;1.55;;
41713;SDS011;27401;47.384;13.666;2023-07-28T12:09:57;1.40;;;1.30;;
41713;SDS011;27401;47.384;13.666;2023-07-28T12:12:41;2.65;;;1.30;;
41713;SDS011;27401;47.384;13.666;2023-07-28T12:15:21;2.35;;;1.38;;
41713;SDS011;27401;47.384;13.666;2023-07-28T12:20:37;1.52;;;1.40;;
41713;SDS011;27401;47.384;13.666;2023-07-28T12:23:16;2.50;;;1.30;;
41713;SDS011;27401;47.384;13.666;2023-07-28T12:25:43;1.40;;;1.30;;
41713;SDS011;27401;47.384;13.666;2023-07-28T12:28:09;1.70;;;1.60;;
41713;SDS011;27401;47.384;13.666;2023-07-28T12:30:35;1.52;;;1.42;;
41713;SDS011;27401;47.384;13.666;2023-07-28T12:33:02;1.70;;;1.20;;
41713;SDS011;27401;47.384;13.666;2023-07-28T12:35:29;2.08;;;1.63;;
41713;SDS011;27401;47.384;13.666;2023-07-28T12:38:02;1.58;;;1.48;;
41713;SDS011;27401;47.384;13.666;2023-07-28T12:40:30;1.48;;;1.38;;
41713;SDS011;27401;47.384;13.666;2023-07-28T12:42:56;2.90;;;1.50;;
41713;SDS011;27401;47.384;13.666;2023-07-28T12:45:22;1.15;;;1.13;;
41713;SDS011;27401;47.384;13.666;2023-07-28T12:47:51;5.13;;;1.90;;
41713;SDS011;27401;47.384;13.666;2023-07-28T12:50:18;1.67;;;1.40;;
41713;SDS011;27401;47.384;13.666;2023-07-28T12:52:44;2.58;;;1.33;;
41713;SDS011;27401;47.384;13.666;2023-07-28T12:55:09;2.72;;;1.35;;
41713;SDS011;27401;47.384;13.666;2023-07-28T12:57:35;2.20;;;1.50;;
41713;SDS011;27401;47.384;13.666;2023-07-28T13:00:00;1.52;;;1.42;;
41713;SDS011;27401;47.384;13.666;2023-07-28T13:02:26;2.33;;;1.40;;
41713;SDS011;27401;47.384;13.666;2023-07-28T13:04:51;1.65;;;1.50;;
41713;SDS011;27401;47.384;13.666;2023-07-28T13:07:17;3.10;;;1.70;;
41713;SDS011;27401;47.384;13.666;2023-07-28T13:09:43;2.55;;;1.60;;
41713;SDS011;27401;47.384;13.666;2023-07-28T13:12:09;2.55;;;1.80;;
41713;SDS011;27401;47.384;13.666;2023-07-28T13:14:34;2.60;;;1.80;;
41713;SDS011;27401;47.384;13.666;2023-07-28T13:17:00;1.60;;;1.50;;
41713;SDS011;27401;47.384;13.666;2023-07-28T13:19:26;1.50;;;1.40;;
41713;SDS011;27401;47.384;13.666;2023-07-28T13:21:51;1.40;;;1.30;;
41713;SDS011;27401;47.384;13.666;2023-07-28T13:24:17;1.63;;;1.52;;
41713;SDS011;27401;47.384;13.666;2023-07-28T13:26:42;1.50;;;1.40;;
41713;SDS011;27401;47.384;13.666;2023-07-28T13:29:08;1.70;;;1.60;;
41713;SDS011;27401;47.384;13.666;2023-07-28T13:31:33;1.55;;;1.42;;
41713;SDS011;27401;47.384;13.666;2023-07-28T13:33:59;4.38;;;1.50;;
41713;SDS011;27401;47.384;13.666;2023-07-28T13:36:24;1.60;;;1.50;;
41713;SDS011;27401;47.384;13.666;2023-07-28T13:38:50;1.80;;;1.70;;
41713;SDS011;27401;47.384;13.666;2023-07-28T13:41:16;1.60;;;1.50;;
41713;SDS011;27401;47.384;13.666;2023-07-28T13:43:41;1.70;;;1.60;;
41713;SDS011;27401;47.384;13.666;2023-07-28T13:46:07;1.60;;;1.50;;
41713;SDS011;27401;47.384;13.666;2023-07-28T13:48:33;1.63;;;1.50;;
41713;SDS011;27401;47.384;13.666;2023-07-28T13:51:01;1.90;;;1.52;;
41713;SDS011;27401;47.384;13.666;2023-07-28T13:53:27;1.77;;;1.50;;
41713;SDS011;27401;47.384;13.666;2023-07-28T13:55:53;1.88;;;1.60;;
41713;SDS011;27401;47.384;13.666;2023-07-28T13:58:19;3.10;;;1.58;;
41713;SDS011;27401;47.384;13.666;2023-07-28T14:00:45;1.85;;;1.40;;
41713;SDS011;27401;47.384;13.666;2023-07-28T14:03:10;2.15;;;1.83;;
41713;SDS011;27401;47.384;13.666;2023-07-28T14:05:36;2.95;;;1.73;;
41713;SDS011;27401;47.384;13.666;2023-07-28T14:08:02;4.47;;;2.28;;
41713;SDS011;27401;47.384;13.666;2023-07-28T14:10:27;2.60;;;1.83;;
41713;SDS011;27401;47.384;13.666;2023-07-28T14:12:53;3.38;;;1.60;;
41713;SDS011;27401;47.384;13.666;2023-07-28T14:15:18;3.65;;;1.65;;
41713;SDS011;27401;47.384;13.666;2023-07-28T14:17:44;6.57;;;2.08;;
41713;SDS011;27401;47.384;13.666;2023-07-28T14:20:10;9.82;;;1.95;;
41713;SDS011;27401;47.384;13.666;2023-07-28T14:22:36;4.95;;;1.83;;
41713;SDS011;27401;47.384;13.666;2023-07-28T14:25:02;2.40;;;1.60;;
41713;SDS011;27401;47.384;13.666;2023-07-28T14:27:28;1.63;;;1.52;;
41713;SDS011;27401;47.384;13.666;2023-07-28T14:29:53;1.73;;;1.60;;
41713;SDS011;27401;47.384;13.666;2023-07-28T14:32:19;1.73;;;1.63;;
41713;SDS011;27401;47.384;13.666;2023-07-28T14:34:44;1.67;;;1.58;;
41713;SDS011;27401;47.384;13.666;2023-07-28T14:37:10;2.42;;;1.77;;
41713;SDS011;27401;47.384;13.666;2023-07-28T14:39:36;2.38;;;2.17;;
41713;SDS011;27401;47.384;13.666;2023-07-28T14:42:02;2.17;;;1.48;;
41713;SDS011;27401;47.384;13.666;2023-07-28T14:44:28;1.90;;;1.80;;
41713;SDS011;27401;47.384;13.666;2023-07-28T14:46:54;1.75;;;1.65;;
41713;SDS011;27401;47.384;13.666;2023-07-28T14:49:20;2.05;;;1.77;;
41713;SDS011;27401;47.384;13.666;2023-07-28T14:51:46;2.40;;;2.10;;
41713;SDS011;27401;47.384;13.666;2023-07-28T14:54:11;2.08;;;1.60;;
41713;SDS011;27401;47.384;13.666;2023-07-28T14:56:37;3.45;;;1.70;;
41713;SDS011;27401;47.384;13.666;2023-07-28T14:59:02;2.38;;;2.00;;
41713;SDS011;27401;47.384;13.666;2023-07-28T15:01:28;1.65;;;1.55;;
41713;SDS011;27401;47.384;13.666;2023-07-28T15:03:56;1.88;;;1.77;;